Time;durP1;ratioP1;P1;durP2;ratioP2;P2;SDS_P1;SDS_P2;PMS_P1;PMS_P2;Temp;Humidity;BMP_temperature;BMP_pressure;BME280_temperature;BME280_humidity;BME280_pressure;Samples;Min_cycle;Max_cycle;Signal;HPM_P1;HPM_P2
2023/03/31 00:00:32;;;;;;;34.37;6.53;;;10.90;99.90;;;;;;5095046;28;20278;-81
2023/03/31 00:02:58;;;;;;;38.43;7.57;;;10.90;99.90;;;;;;5095565;28;20422;-80
2023/03/31 00:05:24;;;;;;;42.80;7.57;;;10.90;99.90;;;;;;5094014;28;20318;-80
2023/03/31 00:07:59;;;;;;;33.97;6.50;;;10.80;99.90;;;;;;5094950;28;20101;-80
2023/03/31 00:10:33;;;;;;;36.10;7.13;;;10.80;99.90;;;;;;5095222;28;20285;-80
2023/03/31 00:13:00;;;;;;;34.73;6.30;;;10.70;99.90;;;;;;5095437;28;20274;-80
2023/03/31 00:15:27;;;;;;;39.70;7.40;;;10.70;99.90;;;;;;5093670;28;20804;-79
2023/03/31 00:17:53;;;;;;;32.13;6.77;;;10.70;99.90;;;;;;5095005;28;20282;-80
2023/03/31 00:20:19;;;;;;;40.00;7.53;;;10.60;99.90;;;;;;5094974;28;20286;-79
2023/03/31 00:22:45;;;;;;;31.37;6.53;;;10.60;99.90;;;;;;5076725;28;20108;-79
2023/03/31 00:25:12;;;;;;;29.83;6.47;;;10.60;99.90;;;;;;5093295;28;20286;-79
2023/03/31 00:27:43;;;;;;;38.57;7.87;;;10.50;99.90;;;;;;5094377;28;20044;-80
2023/03/31 00:30:11;;;;;;;38.10;7.67;;;10.50;99.90;;;;;;5077123;28;20293;-80
2023/03/31 00:32:36;;;;;;;33.03;6.53;;;10.50;99.90;;;;;;5093362;28;20678;-80
2023/03/31 00:35:03;;;;;;;27.90;5.83;;;10.50;99.90;;;;;;5093258;28;20306;-79
2023/03/31 00:37:29;;;;;;;33.00;5.83;;;10.40;99.90;;;;;;5094158;28;20534;-84
2023/03/31 00:39:56;;;;;;;41.00;7.10;;;10.40;99.90;;;;;;5093877;28;20290;-79
2023/03/31 00:42:22;;;;;;;34.10;6.23;;;10.40;99.90;;;;;;5093412;28;20506;-79
2023/03/31 00:45:30;;;;;;;33.67;7.00;;;10.40;99.90;;;;;;5093184;28;20320;-79
2023/03/31 00:47:58;;;;;;;43.87;6.70;;;10.40;99.90;;;;;;5031658;28;20288;-79
2023/03/31 00:50:28;;;;;;;31.03;5.93;;;10.30;99.90;;;;;;5015465;28;20300;-79
2023/03/31 00:53:07;;;;;;;34.33;7.13;;;10.30;99.90;;;;;;5055613;28;20290;-80
2023/03/31 00:55:39;;;;;;;36.27;7.30;;;10.30;99.90;;;;;;5093264;28;20294;-81
2023/03/31 00:58:07;;;;;;;35.70;7.13;;;10.20;99.90;;;;;;5093394;28;20282;-80
2023/03/31 01:00:33;;;;;;;29.17;5.77;;;10.20;99.90;;;;;;5093957;28;20282;-85
2023/03/31 01:03:04;;;;;;;29.57;5.77;;;10.20;99.90;;;;;;5094005;28;20286;-78
2023/03/31 01:05:43;;;;;;;31.43;7.53;;;10.20;99.90;;;;;;5076335;28;20091;-79
2023/03/31 01:08:11;;;;;;;32.93;6.70;;;10.10;99.90;;;;;;5094328;28;20282;-79
2023/03/31 01:10:42;;;;;;;35.40;6.93;;;10.10;99.90;;;;;;5093148;28;20311;-80
2023/03/31 01:13:14;;;;;;;30.47;5.13;;;10.10;99.90;;;;;;5094153;28;20345;-79
2023/03/31 01:15:41;;;;;;;38.70;7.30;;;10.10;99.90;;;;;;5093641;28;20764;-80
2023/03/31 01:18:10;;;;;;;33.77;5.70;;;10.10;99.90;;;;;;5094002;28;20278;-80
2023/03/31 01:20:41;;;;;;;39.80;7.20;;;10.00;99.90;;;;;;5092602;28;20286;-84
2023/03/31 01:23:13;;;;;;;31.30;6.00;;;10.00;99.90;;;;;;5075873;28;20305;-80
2023/03/31 01:26:07;;;;;;;31.40;6.23;;;10.00;99.90;;;;;;5093368;28;20297;-80
2023/03/31 01:28:56;;;;;;;33.13;5.97;;;9.90;99.90;;;;;;5092747;28;20354;-79
2023/03/31 01:31:38;;;;;;;33.13;6.17;;;9.90;99.90;;;;;;5092753;28;20286;-80
2023/03/31 01:34:41;;;;;;;30.63;5.80;;;9.90;99.90;;;;;;5093329;28;20792;-80
2023/03/31 01:37:44;;;;;;;25.20;5.07;;;9.90;99.90;;;;;;5078582;28;20699;-80
2023/03/31 01:40:21;;;;;;;27.90;5.67;;;9.90;99.90;;;;;;5093512;28;20324;-79
2023/03/31 01:42:51;;;;;;;35.30;6.73;;;9.80;99.90;;;;;;5075339;28;20298;-80
2023/03/31 01:45:49;;;;;;;29.87;5.43;;;9.90;99.90;;;;;;5092190;28;20282;-79
2023/03/31 01:48:22;;;;;;;30.80;6.77;;;9.80;99.90;;;;;;5092472;28;20773;-80
2023/03/31 01:51:14;;;;;;;28.37;5.23;;;9.80;99.90;;;;;;5093547;28;20275;-80
2023/03/31 01:53:52;;;;;;;32.50;6.30;;;9.80;99.90;;;;;;5092185;28;20801;-85
2023/03/31 01:56:34;;;;;;;31.30;6.80;;;9.80;99.90;;;;;;5093080;28;20750;-80
2023/03/31 01:59:09;;;;;;;27.23;5.60;;;9.80;99.90;;;;;;5093116;28;20462;-81
2023/03/31 02:01:48;;;;;;;24.58;5.88;;;9.80;99.90;;;;;;5092465;28;20361;-80
2023/03/31 02:04:41;;;;;;;28.37;5.17;;;9.80;99.90;;;;;;5092223;28;20083;-81
2023/03/31 02:07:39;;;;;;;25.43;5.07;;;9.80;99.90;;;;;;5092684;28;20430;-80
2023/03/31 02:10:09;;;;;;;26.77;5.70;;;9.90;99.90;;;;;;5086942;28;20282;-81
2023/03/31 02:12:38;;;;;;;26.50;5.03;;;9.90;99.90;;;;;;5091911;28;20770;-80
2023/03/31 02:15:08;;;;;;;25.23;4.00;;;9.90;99.90;;;;;;5091692;28;20357;-80
2023/03/31 02:17:38;;;;;;;30.37;5.27;;;9.90;99.90;;;;;;5075259;28;20412;-80
2023/03/31 02:20:10;;;;;;;28.27;5.00;;;9.90;99.90;;;;;;5091325;28;20304;-79
2023/03/31 02:22:40;;;;;;;29.50;4.93;;;9.90;99.90;;;;;;5096333;28;20274;-79
2023/03/31 02:25:09;;;;;;;24.50;5.47;;;10.00;99.90;;;;;;5079357;28;20782;-79
2023/03/31 02:27:39;;;;;;;31.20;5.67;;;10.00;99.90;;;;;;5096173;28;20297;-79
2023/03/31 02:30:06;;;;;;;27.90;4.30;;;10.00;99.90;;;;;;5095749;28;20857;-79
2023/03/31 02:32:39;;;;;;;20.80;4.50;;;10.00;99.90;;;;;;5095846;28;20802;-79
2023/03/31 02:35:10;;;;;;;30.03;5.57;;;10.00;99.90;;;;;;5095591;28;20388;-79
2023/03/31 02:37:36;;;;;;;24.67;5.87;;;9.90;99.90;;;;;;5096030;28;20297;-79
2023/03/31 02:40:09;;;;;;;24.13;5.00;;;9.90;99.90;;;;;;5096636;28;20809;-79
2023/03/31 02:42:37;;;;;;;31.87;5.23;;;10.00;99.90;;;;;;5079570;28;20290;-79
2023/03/31 02:45:05;;;;;;;28.23;5.37;;;9.90;99.90;;;;;;5096493;28;20278;-79
2023/03/31 02:47:31;;;;;;;25.57;5.47;;;9.90;99.90;;;;;;5096777;28;20285;-79
2023/03/31 02:50:00;;;;;;;24.93;4.67;;;9.90;99.90;;;;;;5095237;28;20274;-79
2023/03/31 02:52:57;;;;;;;30.53;5.33;;;9.90;99.90;;;;;;5095452;28;20754;-79
2023/03/31 02:55:46;;;;;;;22.60;4.90;;;9.90;99.90;;;;;;5096785;28;20294;-79
2023/03/31 02:58:26;;;;;;;26.43;5.03;;;9.90;99.90;;;;;;5094778;28;20322;-79
2023/03/31 03:01:06;;;;;;;25.33;5.47;;;9.90;99.90;;;;;;5078386;28;20294;-80
2023/03/31 03:03:48;;;;;;;23.33;4.97;;;9.90;99.90;;;;;;5095500;28;20777;-79
2023/03/31 03:06:36;;;;;;;22.27;5.00;;;9.90;99.90;;;;;;5095443;28;20291;-79
2023/03/31 03:09:13;;;;;;;21.50;5.30;;;10.00;99.90;;;;;;5077997;28;20298;-79
2023/03/31 03:12:01;;;;;;;23.67;5.00;;;10.00;99.90;;;;;;5096294;28;20381;-79
2023/03/31 03:14:41;;;;;;;19.37;4.63;;;10.00;99.90;;;;;;5095159;28;20401;-79
2023/03/31 03:17:33;;;;;;;21.50;4.67;;;10.00;99.90;;;;;;5077386;28;20308;-79
2023/03/31 03:20:06;;;;;;;17.30;3.90;;;10.00;99.90;;;;;;5094316;28;20286;-79
2023/03/31 03:22:32;;;;;;;19.27;3.53;;;10.10;99.90;;;;;;5096094;28;20278;-79
2023/03/31 03:24:58;;;;;;;20.30;4.50;;;10.10;99.90;;;;;;5094857;28;20285;-79
2023/03/31 03:27:23;;;;;;;22.10;5.23;;;10.10;99.90;;;;;;5096127;28;20084;-79
2023/03/31 03:29:49;;;;;;;21.63;4.97;;;10.10;99.90;;;;;;5095942;28;20396;-79
2023/03/31 03:32:16;;;;;;;21.47;5.03;;;10.10;99.90;;;;;;5095068;28;20105;-79
2023/03/31 03:34:41;;;;;;;19.50;4.27;;;10.10;99.90;;;;;;5094149;28;20302;-79
2023/03/31 03:37:07;;;;;;;22.30;4.77;;;10.10;99.90;;;;;;5094538;28;20339;-80
2023/03/31 03:39:33;;;;;;;19.83;4.40;;;10.10;99.90;;;;;;5094652;28;20575;-81
2023/03/31 03:41:59;;;;;;;25.40;4.70;;;10.20;99.90;;;;;;5077165;28;20396;-83
2023/03/31 03:44:24;;;;;;;21.87;5.33;;;10.20;99.90;;;;;;5060713;28;20066;-82
2023/03/31 03:46:50;;;;;;;18.67;4.97;;;10.20;99.90;;;;;;5094464;28;20044;-81
2023/03/31 03:49:16;;;;;;;18.30;4.30;;;10.20;99.90;;;;;;5077319;28;20043;-83
2023/03/31 03:51:42;;;;;;;19.23;4.63;;;10.20;99.90;;;;;;5094044;28;20052;-83
2023/03/31 03:54:08;;;;;;;21.07;4.37;;;10.20;99.90;;;;;;5093920;28;20301;-84
2023/03/31 03:56:33;;;;;;;19.07;5.50;;;10.10;99.90;;;;;;5077633;28;20055;-82
2023/03/31 03:58:59;;;;;;;17.50;4.80;;;10.10;99.90;;;;;;5076991;28;20502;-81
2023/03/31 04:01:25;;;;;;;16.27;4.40;;;10.10;99.90;;;;;;5077458;28;20044;-82
2023/03/31 04:03:51;;;;;;;20.93;5.60;;;10.20;99.90;;;;;;5077458;28;20128;-82
2023/03/31 04:06:16;;;;;;;16.07;4.97;;;10.20;99.90;;;;;;5077130;28;20177;-84
2023/03/31 04:08:42;;;;;;;21.50;4.93;;;10.20;99.90;;;;;;5094350;28;20048;-83
2023/03/31 04:11:16;;;;;;;16.53;4.87;;;10.20;99.90;;;;;;5093511;28;20048;-84
2023/03/31 04:13:43;;;;;;;20.20;5.73;;;10.20;99.90;;;;;;5077264;28;20047;-80
2023/03/31 04:16:09;;;;;;;18.87;6.23;;;10.20;99.90;;;;;;5093695;28;20343;-81
2023/03/31 04:18:41;;;;;;;19.87;5.70;;;10.20;99.90;;;;;;5060315;28;20286;-81
2023/03/31 04:21:11;;;;;;;17.20;5.43;;;10.20;99.90;;;;;;5093804;28;20286;-82
2023/03/31 04:23:41;;;;;;;21.07;6.03;;;10.20;99.90;;;;;;5093931;28;20810;-83
2023/03/31 04:26:08;;;;;;;20.73;6.67;;;10.20;99.90;;;;;;5076433;28;20297;-84
2023/03/31 04:28:35;;;;;;;22.87;6.37;;;10.10;99.90;;;;;;5093283;28;20289;-84
2023/03/31 04:31:02;;;;;;;18.20;6.27;;;10.10;99.90;;;;;;5093638;28;20294;-84
2023/03/31 04:33:28;;;;;;;16.80;6.27;;;10.10;99.90;;;;;;5093508;28;20316;-83
2023/03/31 04:35:54;;;;;;;18.53;6.57;;;10.10;99.90;;;;;;5093547;28;20290;-83
2023/03/31 04:38:22;;;;;;;18.23;6.77;;;10.10;99.90;;;;;;5076459;28;20419;-82
2023/03/31 04:40:50;;;;;;;23.70;5.87;;;10.10;99.90;;;;;;5093567;28;20055;-82
2023/03/31 04:43:17;;;;;;;20.00;6.43;;;10.10;99.90;;;;;;5092784;28;20286;-83
2023/03/31 04:45:43;;;;;;;22.40;5.70;;;10.10;99.90;;;;;;5092591;28;20290;-83
2023/03/31 04:48:09;;;;;;;19.73;6.27;;;10.10;99.90;;;;;;5092967;28;20819;-83
2023/03/31 04:50:35;;;;;;;14.70;5.67;;;10.10;99.90;;;;;;5093738;28;20043;-82
2023/03/31 04:53:02;;;;;;;20.93;7.00;;;10.10;99.90;;;;;;5076533;28;20408;-87
2023/03/31 04:55:28;;;;;;;17.00;5.90;;;10.10;99.90;;;;;;5092991;28;20338;-82
2023/03/31 04:57:54;;;;;;;20.47;6.60;;;10.10;99.90;;;;;;5076666;28;20345;-82
2023/03/31 05:00:21;;;;;;;22.97;6.90;;;10.10;99.90;;;;;;5059453;28;20044;-82
2023/03/31 05:02:46;;;;;;;14.87;5.97;;;10.10;99.90;;;;;;5093396;28;20282;-82
2023/03/31 05:05:12;;;;;;;22.73;7.00;;;10.00;99.90;;;;;;5092802;28;20690;-83
2023/03/31 05:07:38;;;;;;;20.70;6.97;;;10.00;99.90;;;;;;5093121;28;20040;-82
2023/03/31 05:10:05;;;;;;;18.70;7.03;;;10.00;99.90;;;;;;5092959;28;20040;-83
2023/03/31 05:12:35;;;;;;;17.67;7.10;;;10.00;99.90;;;;;;5076085;28;20293;-82
2023/03/31 05:15:01;;;;;;;19.37;7.50;;;10.00;99.90;;;;;;5059343;28;20301;-82
2023/03/31 05:17:27;;;;;;;19.23;7.17;;;10.10;99.90;;;;;;5075855;28;20820;-82
2023/03/31 05:19:52;;;;;;;18.97;8.17;;;10.00;99.90;;;;;;5075698;28;20052;-83
2023/03/31 05:22:19;;;;;;;14.50;6.73;;;10.10;99.90;;;;;;5092643;28;20343;-83
2023/03/31 05:24:46;;;;;;;21.13;7.53;;;10.10;99.90;;;;;;5076116;28;20044;-83
2023/03/31 05:27:12;;;;;;;16.50;6.63;;;10.10;99.90;;;;;;5075838;28;20286;-83
2023/03/31 05:29:38;;;;;;;20.00;8.50;;;10.10;99.90;;;;;;5092500;28;20282;-83
2023/03/31 05:32:04;;;;;;;18.37;7.43;;;10.10;99.90;;;;;;5075619;28;20289;-83
2023/03/31 05:34:29;;;;;;;19.53;7.40;;;10.10;99.90;;;;;;5075451;28;20044;-83
2023/03/31 05:36:55;;;;;;;17.00;7.43;;;10.10;99.90;;;;;;5058965;28;20611;-82
2023/03/31 05:39:21;;;;;;;19.67;7.73;;;10.10;99.90;;;;;;5092327;28;20044;-83
2023/03/31 05:41:47;;;;;;;21.70;7.70;;;10.10;99.90;;;;;;5092430;28;20512;-83
2023/03/31 05:44:14;;;;;;;21.43;8.43;;;10.10;99.90;;;;;;5093358;28;20044;-82
2023/03/31 05:46:40;;;;;;;17.63;7.07;;;10.10;99.90;;;;;;5092870;28;20051;-82
2023/03/31 05:49:06;;;;;;;20.57;8.20;;;10.10;99.90;;;;;;5092487;28;20278;-82
2023/03/31 05:51:33;;;;;;;15.00;7.57;;;10.10;99.90;;;;;;5092358;28;20314;-82
2023/03/31 05:53:59;;;;;;;22.13;7.13;;;10.10;99.90;;;;;;5058722;28;20650;-82
2023/03/31 05:56:26;;;;;;;18.87;7.60;;;10.10;99.90;;;;;;5075139;28;20282;-83
2023/03/31 05:58:52;;;;;;;15.90;7.37;;;10.10;99.90;;;;;;5059373;28;20559;-82
2023/03/31 06:01:19;;;;;;;16.63;8.17;;;10.10;99.90;;;;;;5092078;28;20293;-83
2023/03/31 06:03:45;;;;;;;21.93;7.70;;;10.10;99.90;;;;;;5092589;28;20369;-81
2023/03/31 06:06:15;;;;;;;16.20;6.80;;;10.10;99.90;;;;;;5091678;28;20284;-81
2023/03/31 06:08:46;;;;;;;14.30;6.90;;;10.10;99.90;;;;;;5075273;28;20294;-80
2023/03/31 06:11:18;;;;;;;17.97;7.00;;;10.10;99.90;;;;;;5074596;28;20286;-82
2023/03/31 06:13:44;;;;;;;20.47;6.83;;;10.10;99.90;;;;;;5091772;28;20402;-80
2023/03/31 06:16:12;;;;;;;13.63;5.97;;;10.10;99.90;;;;;;5091924;28;20289;-84
2023/03/31 06:18:38;;;;;;;14.27;6.90;;;10.10;99.90;;;;;;5074928;28;20290;-80
2023/03/31 06:21:04;;;;;;;12.73;6.07;;;10.10;99.90;;;;;;5092270;28;20297;-80
2023/03/31 06:23:30;;;;;;;11.80;5.43;;;10.10;99.90;;;;;;5091741;28;20723;-80
2023/03/31 06:26:05;;;;;;;14.47;5.57;;;10.10;99.90;;;;;;5092006;28;20327;-80
2023/03/31 06:28:32;;;;;;;18.20;5.77;;;10.10;99.90;;;;;;5074976;28;20331;-82
2023/03/31 06:31:07;;;;;;;13.40;5.40;;;10.00;99.90;;;;;;5092059;28;20290;-82
2023/03/31 06:33:33;;;;;;;11.38;5.18;;;10.10;99.90;;;;;;5091707;28;20297;-83
2023/03/31 06:36:04;;;;;;;17.47;5.63;;;10.10;99.90;;;;;;5091943;28;20067;-83
2023/03/31 06:38:30;;;;;;;16.53;5.27;;;10.00;99.90;;;;;;5091751;28;20286;-84
2023/03/31 06:40:56;;;;;;;17.43;5.27;;;10.00;99.90;;;;;;5091483;28;20282;-84
2023/03/31 06:43:21;;;;;;;13.60;4.97;;;10.00;99.90;;;;;;5057992;28;20282;-82
2023/03/31 06:45:47;;;;;;;11.60;4.20;;;10.00;99.90;;;;;;5075007;28;20044;-83
2023/03/31 06:48:13;;;;;;;13.03;4.47;;;10.00;99.90;;;;;;5075091;28;20079;-83
2023/03/31 06:50:40;;;;;;;14.40;4.70;;;10.00;99.90;;;;;;5091571;28;20373;-82
2023/03/31 06:53:09;;;;;;;10.83;4.63;;;10.00;99.90;;;;;;5074894;28;20054;-82
2023/03/31 06:55:36;;;;;;;14.57;4.90;;;10.00;99.90;;;;;;5092500;28;20310;-84
2023/03/31 06:58:02;;;;;;;9.10;3.90;;;10.00;99.90;;;;;;5074897;28;20399;-83
2023/03/31 07:00:28;;;;;;;11.30;3.93;;;10.00;99.90;;;;;;5074667;28;20286;-84
2023/03/31 07:02:54;;;;;;;10.67;4.63;;;10.00;99.90;;;;;;5074873;28;20280;-84
2023/03/31 07:05:26;;;;;;;11.40;4.53;;;10.00;99.90;;;;;;5074539;28;20141;-83
2023/03/31 07:08:00;;;;;;;13.10;4.80;;;10.00;99.90;;;;;;5077639;28;20048;-83
2023/03/31 07:10:28;;;;;;;10.30;4.27;;;10.00;99.90;;;;;;5095088;28;20286;-82
2023/03/31 07:12:54;;;;;;;10.63;4.40;;;10.00;99.90;;;;;;5095365;28;20369;-84
2023/03/31 07:15:21;;;;;;;11.93;3.60;;;10.00;99.90;;;;;;5094442;28;20386;-77
2023/03/31 07:17:49;;;;;;;12.57;4.80;;;10.00;99.90;;;;;;5096147;28;20047;-81
2023/03/31 07:20:16;;;;;;;11.90;4.10;;;10.00;99.90;;;;;;5094766;28;20320;-80
2023/03/31 07:22:44;;;;;;;8.17;3.80;;;10.00;99.90;;;;;;5061297;28;20778;-80
2023/03/31 07:25:11;;;;;;;13.90;4.37;;;10.00;99.90;;;;;;5077837;28;20819;-78
2023/03/31 07:27:37;;;;;;;9.43;4.00;;;10.00;99.90;;;;;;5095749;28;20630;-82
2023/03/31 07:30:05;;;;;;;11.77;4.00;;;9.90;99.90;;;;;;5078074;28;20316;-78
2023/03/31 07:32:32;;;;;;;9.57;3.63;;;9.90;99.90;;;;;;5094529;28;20297;-79
2023/03/31 07:34:58;;;;;;;11.97;4.70;;;9.90;99.90;;;;;;5095915;28;20293;-82
2023/03/31 07:37:24;;;;;;;11.70;5.17;;;9.90;99.90;;;;;;5094493;28;20283;-82
2023/03/31 07:39:50;;;;;;;10.27;4.40;;;9.90;99.90;;;;;;5094845;28;20293;-83
2023/03/31 07:42:16;;;;;;;14.40;4.27;;;10.00;99.90;;;;;;5095722;28;20093;-83
2023/03/31 07:44:41;;;;;;;8.70;4.50;;;10.00;99.90;;;;;;5077250;28;20929;-82
2023/03/31 07:47:07;;;;;;;11.37;4.37;;;10.00;99.90;;;;;;5095696;28;20048;-82
2023/03/31 07:49:34;;;;;;;12.23;4.70;;;10.00;99.90;;;;;;5095289;28;20040;-82
2023/03/31 07:52:00;;;;;;;11.47;4.40;;;10.00;99.90;;;;;;5094275;28;20040;-82
2023/03/31 07:54:26;;;;;;;7.43;4.30;;;10.00;99.90;;;;;;5095028;28;20377;-82
2023/03/31 07:56:52;;;;;;;12.53;4.60;;;10.00;99.90;;;;;;5095388;28;20282;-83
2023/03/31 07:59:19;;;;;;;8.93;4.00;;;10.00;99.90;;;;;;5095485;28;20339;-83
2023/03/31 08:01:45;;;;;;;10.43;4.80;;;10.00;99.90;;;;;;5077212;28;20286;-83
2023/03/31 08:04:11;;;;;;;12.77;4.87;;;10.00;99.90;;;;;;5093955;28;20376;-83
2023/03/31 08:06:38;;;;;;;12.13;5.30;;;10.10;99.90;;;;;;5095089;28;20274;-83
2023/03/31 08:09:06;;;;;;;12.40;5.50;;;10.10;99.90;;;;;;5094296;28;20309;-84
2023/03/31 08:11:33;;;;;;;8.70;4.40;;;10.10;99.90;;;;;;5093945;28;20278;-82
2023/03/31 08:13:59;;;;;;;10.60;5.67;;;10.10;99.90;;;;;;5094261;28;20302;-82
2023/03/31 08:16:25;;;;;;;12.77;4.73;;;10.10;99.90;;;;;;5095128;28;20274;-84
2023/03/31 08:18:50;;;;;;;9.50;4.73;;;10.20;99.90;;;;;;5093417;28;20381;-85
2023/03/31 08:21:16;;;;;;;12.43;4.60;;;10.20;99.90;;;;;;5093936;28;20052;-84
2023/03/31 08:23:42;;;;;;;10.53;4.90;;;10.20;99.90;;;;;;5094556;28;20467;-85
2023/03/31 08:26:16;;;;;;;15.27;5.70;;;10.30;99.90;;;;;;5093503;28;20343;-84
2023/03/31 08:28:42;;;;;;;9.77;4.55;;;10.30;99.90;;;;;;5076537;28;20158;-84
2023/03/31 08:31:09;;;;;;;13.73;5.77;;;10.40;99.90;;;;;;5076601;28;20082;-83
2023/03/31 08:33:36;;;;;;;13.77;5.40;;;10.40;99.90;;;;;;5094290;28;20483;-83
2023/03/31 08:36:07;;;;;;;10.93;5.20;;;10.40;99.90;;;;;;5093352;28;20334;-81
2023/03/31 08:38:37;;;;;;;14.80;5.63;;;10.50;99.90;;;;;;5093013;28;20282;-80
2023/03/31 08:41:06;;;;;;;12.00;4.83;;;10.50;99.90;;;;;;5094456;28;20325;-80
2023/03/31 08:43:43;;;;;;;11.57;4.73;;;10.50;99.90;;;;;;5094358;28;20286;-77
2023/03/31 08:46:16;;;;;;;11.47;4.37;;;10.60;99.90;;;;;;5093729;28;20278;-76
2023/03/31 08:48:47;;;;;;;9.63;4.27;;;10.60;99.90;;;;;;5094232;28;20274;-79
2023/03/31 08:51:16;;;;;;;14.43;5.27;;;10.60;99.90;;;;;;5094572;28;20315;-79
2023/03/31 08:53:51;;;;;;;10.47;5.03;;;10.60;99.90;;;;;;5094162;28;20290;-79
2023/03/31 08:56:21;;;;;;;12.98;4.90;;;10.60;99.90;;;;;;5094409;28;20274;-78
2023/03/31 08:58:49;;;;;;;12.47;5.13;;;10.70;99.90;;;;;;5094316;28;20445;-78
2023/03/31 09:01:30;;;;;;;13.63;5.93;;;10.70;99.90;;;;;;5093288;28;20313;-79
2023/03/31 09:04:05;;;;;;;12.87;5.60;;;10.80;99.90;;;;;;5094046;28;20274;-78
2023/03/31 09:06:38;;;;;;;14.05;6.13;;;10.80;99.90;;;;;;5094709;28;20415;-80
2023/03/31 09:09:09;;;;;;;15.00;5.63;;;10.90;99.90;;;;;;5094293;28;20050;-80
2023/03/31 09:11:43;;;;;;;17.10;6.00;;;10.90;99.90;;;;;;5093824;28;20776;-80
2023/03/31 09:14:24;;;;;;;14.00;5.10;;;11.00;99.90;;;;;;5092917;28;20785;-80
2023/03/31 09:17:13;;;;;;;12.57;4.77;;;11.10;99.90;;;;;;5093796;28;20657;-78
2023/03/31 09:19:42;;;;;;;15.40;5.33;;;11.10;99.90;;;;;;5092184;28;20322;-81
2023/03/31 09:22:18;;;;;;;12.83;5.87;;;11.20;99.90;;;;;;5093830;28;20282;-79
2023/03/31 09:25:09;;;;;;;11.73;5.27;;;11.30;99.90;;;;;;5093700;28;20384;-82
2023/03/31 09:27:36;;;;;;;14.60;5.47;;;11.30;99.90;;;;;;5093890;28;20285;-80
2023/03/31 09:30:09;;;;;;;9.57;4.80;;;11.40;99.90;;;;;;5093293;28;20330;-85
2023/03/31 09:32:37;;;;;;;14.90;5.07;;;11.50;99.90;;;;;;5076038;28;20290;-86
2023/03/31 09:35:24;;;;;;;13.97;4.47;;;11.60;99.90;;;;;;5093807;28;20393;-84
2023/03/31 09:37:50;;;;;;;11.87;4.57;;;11.70;99.90;;;;;;5093532;28;20608;-81
2023/03/31 09:40:21;;;;;;;9.90;3.70;;;11.70;99.90;;;;;;5093688;28;20290;-81
2023/03/31 09:42:55;;;;;;;8.17;3.20;;;11.70;99.90;;;;;;5093092;28;20785;-82
2023/03/31 09:45:20;;;;;;;9.97;3.87;;;11.70;99.90;;;;;;5093828;28;20278;-79
2023/03/31 09:47:50;;;;;;;9.67;4.10;;;11.60;99.90;;;;;;5092300;28;20287;-81
2023/03/31 09:50:17;;;;;;;10.53;4.30;;;11.60;99.90;;;;;;5092380;28;20477;-82
2023/03/31 09:52:50;;;;;;;9.53;3.50;;;11.60;99.90;;;;;;5092012;28;20302;-81
2023/03/31 09:55:33;;;;;;;10.50;4.13;;;11.60;99.90;;;;;;5092085;28;20324;-82
2023/03/31 09:58:03;;;;;;;10.80;4.27;;;11.60;99.90;;;;;;5092124;28;20290;-83
2023/03/31 10:00:28;;;;;;;7.60;4.17;;;11.60;99.90;;;;;;5093387;28;20278;-82
2023/03/31 10:02:56;;;;;;;10.27;4.27;;;11.70;99.90;;;;;;5091865;28;20297;-83
2023/03/31 10:05:36;;;;;;;13.43;4.80;;;11.60;99.90;;;;;;5093238;28;20102;-84
2023/03/31 10:08:26;;;;;;;10.43;4.83;;;11.60;99.90;;;;;;5093046;28;20340;-85
2023/03/31 10:11:05;;;;;;;10.50;4.03;;;11.70;99.90;;;;;;5091705;28;20373;-83
2023/03/31 10:14:03;;;;;;;10.63;3.90;;;11.70;99.90;;;;;;5093210;28;20316;-83
2023/03/31 10:16:31;;;;;;;6.77;3.30;;;11.70;99.90;;;;;;5086859;28;20305;-85
2023/03/31 10:19:21;;;;;;;9.23;3.93;;;11.70;99.90;;;;;;5091624;28;20298;-86
2023/03/31 10:21:54;;;;;;;11.00;3.73;;;11.80;99.90;;;;;;5091876;28;20314;-83
2023/03/31 10:24:20;;;;;;;10.13;4.40;;;11.90;99.90;;;;;;5075326;28;20774;-85
2023/03/31 10:26:53;;;;;;;11.07;4.30;;;11.90;99.90;;;;;;5093024;28;20365;-85
2023/03/31 10:29:32;;;;;;;9.60;4.43;;;12.10;99.90;;;;;;5092307;28;20044;-84
2023/03/31 10:32:27;;;;;;;11.30;4.23;;;12.10;99.90;;;;;;5092803;28;20696;-86
2023/03/31 10:34:55;;;;;;;12.70;4.70;;;12.20;99.90;;;;;;5091151;28;20384;-86
2023/03/31 10:37:24;;;;;;;15.70;5.10;;;12.20;99.90;;;;;;5093492;28;20419;-83
2023/03/31 10:40:06;;;;;;;8.43;3.37;;;12.30;99.90;;;;;;5092489;28;20720;-81
2023/03/31 10:42:32;;;;;;;11.60;4.10;;;12.40;99.90;;;;;;5093288;28;20290;-83
2023/03/31 10:45:24;;;;;;;12.17;4.10;;;12.40;99.90;;;;;;5095595;28;20296;-83
2023/03/31 10:47:53;;;;;;;10.97;3.97;;;12.40;99.90;;;;;;5095621;28;20290;-84
2023/03/31 10:50:25;;;;;;;12.90;4.40;;;12.50;99.90;;;;;;5095677;28;20327;-83
2023/03/31 10:52:50;;;;;;;11.77;3.80;;;12.60;99.90;;;;;;5095266;28;20297;-84
2023/03/31 10:55:35;;;;;;;9.70;3.53;;;12.70;99.90;;;;;;5096582;28;20327;-81
2023/03/31 10:58:24;;;;;;;12.48;3.85;;;12.70;99.90;;;;;;5096475;28;20621;-86
2023/03/31 11:00:58;;;;;;;11.00;3.60;;;12.90;99.90;;;;;;5096531;28;20131;-87
2023/03/31 11:03:42;;;;;;;9.43;3.70;;;13.00;99.90;;;;;;5095650;28;20278;-86
2023/03/31 11:06:37;;;;;;;9.77;3.63;;;13.10;99.90;;;;;;5095450;28;20726;-86
2023/03/31 11:09:08;;;;;;;9.47;4.10;;;13.20;99.90;;;;;;5093546;28;20684;-87
2023/03/31 11:12:05;;;;;;;13.43;3.93;;;13.30;99.90;;;;;;5095482;28;20308;-83
2023/03/31 11:14:52;;;;;;;13.50;4.60;;;13.30;99.90;;;;;;5095338;28;20306;-81
2023/03/31 11:17:30;;;;;;;13.13;4.27;;;13.40;99.90;;;;;;5095578;28;20847;-80
2023/03/31 11:20:18;;;;;;;12.03;3.73;;;13.40;99.90;;;;;;5094435;28;20326;-79
2023/03/31 11:23:14;;;;;;;12.80;4.17;;;13.30;99.90;;;;;;5095308;28;20767;-81
2023/03/31 11:26:09;;;;;;;14.47;4.67;;;13.30;99.90;;;;;;5088094;28;20298;-81
2023/03/31 11:28:49;;;;;;;12.45;3.65;;;13.40;99.90;;;;;;5095178;28;20274;-78
2023/03/31 11:31:33;;;;;;;11.37;2.90;;;13.40;99.90;;;;;;5111264;28;20080;-84
2023/03/31 11:34:31;;;;;;;12.00;3.63;;;13.40;99.90;;;;;;5093452;28;20309;-84
2023/03/31 11:37:18;;;;;;;13.53;3.40;;;13.20;99.90;;;;;;5095049;28;20654;-84
2023/03/31 11:39:44;;;;;;;11.57;3.13;;;13.00;99.90;;;;;;5096526;28;20329;-85
2023/03/31 11:42:22;;;;;;;14.53;3.70;;;12.90;99.90;;;;;;5094997;28;20333;-86
2023/03/31 11:44:53;;;;;;;11.97;3.73;;;12.80;99.90;;;;;;5096151;28;20048;-85
2023/03/31 11:47:24;;;;;;;10.40;3.30;;;12.70;99.90;;;;;;5078197;28;20290;-84
2023/03/31 11:49:53;;;;;;;8.93;2.80;;;12.60;99.90;;;;;;5095077;28;20627;-83
2023/03/31 11:52:28;;;;;;;7.47;2.80;;;12.50;99.90;;;;;;5094864;28;20832;-85
2023/03/31 11:55:05;;;;;;;;;;;12.50;99.90;;;;;;5078114;28;20297;-87
2023/03/31 11:57:36;;;;;;;7.27;3.50;;;12.50;99.90;;;;;;5096174;28;19980;-84
2023/03/31 12:00:15;;;;;;;6.87;3.20;;;12.50;99.90;;;;;;5094523;28;20333;-84
2023/03/31 12:02:59;;;;;;;11.63;3.90;;;12.60;99.90;;;;;;5094664;28;20298;-84
2023/03/31 12:05:29;;;;;;;9.67;3.73;;;12.60;99.90;;;;;;5094652;28;20351;-84
2023/03/31 12:08:15;;;;;;;13.93;4.60;;;12.50;99.90;;;;;;5095678;28;20278;-84
2023/03/31 12:11:09;;;;;;;10.23;4.13;;;12.50;99.90;;;;;;5094929;28;20295;-84
2023/03/31 12:13:52;;;;;;;12.80;4.70;;;12.40;99.90;;;;;;5094155;28;20273;-83
2023/03/31 12:16:22;;;;;;;14.80;4.10;;;12.40;99.90;;;;;;5093858;28;20286;-83
2023/03/31 12:19:04;;;;;;;12.07;4.63;;;12.40;99.90;;;;;;5093932;28;20790;-83
2023/03/31 12:21:32;;;;;;;14.13;4.70;;;12.40;99.90;;;;;;5095513;28;20300;-84
2023/03/31 12:23:58;;;;;;;13.80;4.87;;;12.40;99.90;;;;;;5077229;28;20781;-86
2023/03/31 12:26:35;;;;;;;12.63;4.10;;;12.50;99.90;;;;;;5094306;28;20286;-85
2023/03/31 12:29:11;;;;;;;15.77;4.60;;;12.50;99.90;;;;;;5094165;28;20056;-85
2023/03/31 12:31:38;;;;;;;12.60;4.63;;;12.60;99.90;;;;;;5094330;28;20344;-84
2023/03/31 12:34:11;;;;;;;14.23;3.80;;;12.60;99.90;;;;;;5094643;28;20302;-85
2023/03/31 12:37:23;;;;;;;13.90;3.90;;;12.70;99.90;;;;;;5094979;28;20286;-84
2023/03/31 12:40:31;;;;;;;16.93;4.80;;;12.90;99.90;;;;;;5093873;28;20294;-84
2023/03/31 12:43:25;;;;;;;15.67;4.83;;;13.00;99.90;;;;;;5073804;28;20286;-84
2023/03/31 12:46:17;;;;;;;14.70;4.50;;;13.00;99.90;;;;;;5093547;28;20297;-84
2023/03/31 12:49:15;;;;;;;18.10;5.13;;;13.10;99.90;;;;;;5094658;28;20286;-84
2023/03/31 12:52:13;;;;;;;17.03;4.60;;;13.10;99.90;;;;;;5089790;28;20294;-84
2023/03/31 12:55:09;;;;;;;15.07;4.27;;;13.10;99.90;;;;;;5093467;28;20391;-84
2023/03/31 12:57:36;;;;;;;12.40;4.40;;;13.00;99.90;;;;;;5076911;28;20316;-86
2023/03/31 13:00:15;;;;;;;14.57;4.30;;;12.90;99.90;;;;;;5110464;28;20633;-84
2023/03/31 13:02:41;;;;;;;15.03;5.03;;;12.80;99.90;;;;;;5094424;28;20735;-84
2023/03/31 13:05:35;;;;;;;15.57;4.97;;;12.70;99.90;;;;;;5092147;28;20294;-85